sensor_id;sensor_type;location;lat;lon;timestamp;pressure;altitude;pressure_sealevel;temperature;humidity
69751;BME280;57335;52.288;6.056;2024-03-08T00:02:16;101999.06;;;1.84;100.00
69751;BME280;57335;52.288;6.056;2024-03-08T00:04:43;101996.25;;;1.75;100.00
69751;BME280;57335;52.288;6.056;2024-03-08T00:07:11;101995.78;;;1.82;100.00
69751;BME280;57335;52.288;6.056;2024-03-08T00:09:37;102001.06;;;1.80;100.00
69751;BME280;57335;52.288;6.056;2024-03-08T00:12:04;101985.00;;;1.76;100.00
69751;BME280;57335;52.288;6.056;2024-03-08T00:14:30;101974.28;;;1.70;100.00
69751;BME280;57335;52.288;6.056;2024-03-08T00:16:57;101976.06;;;1.69;100.00
69751;BME280;57335;52.288;6.056;2024-03-08T00:19:23;101986.41;;;1.81;100.00
69751;BME280;57335;52.288;6.056;2024-03-08T00:21:50;101981.22;;;1.81;100.00
69751;BME280;57335;52.288;6.056;2024-03-08T00:24:16;101971.81;;;1.79;100.00
69751;BME280;57335;52.288;6.056;2024-03-08T00:26:43;101978.88;;;1.77;100.00
69751;BME280;57335;52.288;6.056;2024-03-08T00:29:10;101975.69;;;1.74;100.00
69751;BME280;57335;52.288;6.056;2024-03-08T00:31:36;101975.00;;;1.72;100.00
69751;BME280;57335;52.288;6.056;2024-03-08T00:34:03;101969.81;;;1.72;100.00
69751;BME280;57335;52.288;6.056;2024-03-08T00:36:29;101970.06;;;1.69;100.00
69751;BME280;57335;52.288;6.056;2024-03-08T00:38:56;101968.09;;;1.61;100.00
69751;BME280;57335;52.288;6.056;2024-03-08T00:41:23;101969.00;;;1.60;100.00
69751;BME280;57335;52.288;6.056;2024-03-08T00:43:49;101958.34;;;1.53;100.00
69751;BME280;57335;52.288;6.056;2024-03-08T00:46:16;101972.28;;;1.62;100.00
69751;BME280;57335;52.288;6.056;2024-03-08T00:48:43;101953.88;;;1.55;100.00
69751;BME280;57335;52.288;6.056;2024-03-08T00:51:10;101950.69;;;1.52;100.00
69751;BME280;57335;52.288;6.056;2024-03-08T00:53:36;101947.53;;;1.48;100.00
69751;BME280;57335;52.288;6.056;2024-03-08T00:56:03;101946.81;;;1.57;100.00
69751;BME280;57335;52.288;6.056;2024-03-08T00:58:30;101938.16;;;1.47;100.00
69751;BME280;57335;52.288;6.056;2024-03-08T01:00:57;101951.41;;;1.54;100.00
69751;BME280;57335;52.288;6.056;2024-03-08T01:03:23;101940.03;;;1.45;100.00
69751;BME280;57335;52.288;6.056;2024-03-08T01:05:50;101929.81;;;1.44;100.00
69751;BME280;57335;52.288;6.056;2024-03-08T01:08:17;101928.03;;;1.44;100.00
69751;BME280;57335;52.288;6.056;2024-03-08T01:10:44;101930.63;;;1.44;100.00
69751;BME280;57335;52.288;6.056;2024-03-08T01:13:11;101910.69;;;1.35;100.00
69751;BME280;57335;52.288;6.056;2024-03-08T01:15:37;101931.47;;;1.45;100.00
69751;BME280;57335;52.288;6.056;2024-03-08T01:18:07;101917.50;;;1.36;100.00
69751;BME280;57335;52.288;6.056;2024-03-08T01:20:34;101913.97;;;1.37;100.00
69751;BME280;57335;52.288;6.056;2024-03-08T01:23:01;101905.75;;;1.32;100.00
69751;BME280;57335;52.288;6.056;2024-03-08T01:25:27;101903.06;;;1.33;100.00
69751;BME280;57335;52.288;6.056;2024-03-08T01:27:54;101902.13;;;1.34;100.00
69751;BME280;57335;52.288;6.056;2024-03-08T01:30:20;101899.56;;;1.34;100.00
69751;BME280;57335;52.288;6.056;2024-03-08T01:32:47;101888.03;;;1.27;100.00
69751;BME280;57335;52.288;6.056;2024-03-08T01:35:14;101891.22;;;1.31;100.00
69751;BME280;57335;52.288;6.056;2024-03-08T01:37:40;101888.84;;;1.28;100.00
69751;BME280;57335;52.288;6.056;2024-03-08T01:40:07;101886.06;;;1.31;100.00
69751;BME280;57335;52.288;6.056;2024-03-08T01:42:35;101885.47;;;1.27;100.00
69751;BME280;57335;52.288;6.056;2024-03-08T01:45:07;101874.53;;;1.24;100.00
69751;BME280;57335;52.288;6.056;2024-03-08T01:47:34;101874.44;;;1.25;100.00
69751;BME280;57335;52.288;6.056;2024-03-08T01:50:02;101877.13;;;1.24;100.00
69751;BME280;57335;52.288;6.056;2024-03-08T01:52:33;101869.75;;;1.19;100.00
69751;BME280;57335;52.288;6.056;2024-03-08T01:55:01;101873.72;;;1.23;100.00
69751;BME280;57335;52.288;6.056;2024-03-08T01:57:28;101874.66;;;1.22;100.00
69751;BME280;57335;52.288;6.056;2024-03-08T01:59:57;101867.53;;;1.14;100.00
69751;BME280;57335;52.288;6.056;2024-03-08T02:02:24;101866.56;;;1.15;100.00
69751;BME280;57335;52.288;6.056;2024-03-08T02:04:51;101867.53;;;1.14;100.00
69751;BME280;57335;52.288;6.056;2024-03-08T02:07:19;101852.63;;;1.07;100.00
69751;BME280;57335;52.288;6.056;2024-03-08T02:09:46;101856.03;;;1.07;100.00
69751;BME280;57335;52.288;6.056;2024-03-08T02:12:12;101858.59;;;1.07;100.00
69751;BME280;57335;52.288;6.056;2024-03-08T02:14:39;101845.56;;;0.97;100.00
69751;BME280;57335;52.288;6.056;2024-03-08T02:17:06;101857.19;;;1.03;100.00
69751;BME280;57335;52.288;6.056;2024-03-08T02:19:34;101842.28;;;0.95;100.00
69751;BME280;57335;52.288;6.056;2024-03-08T02:22:03;101851.69;;;0.96;100.00
69751;BME280;57335;52.288;6.056;2024-03-08T02:24:31;101847.72;;;0.92;100.00
69751;BME280;57335;52.288;6.056;2024-03-08T02:26:58;101849.22;;;0.95;100.00
69751;BME280;57335;52.288;6.056;2024-03-08T02:29:25;101842.78;;;0.89;100.00
69751;BME280;57335;52.288;6.056;2024-03-08T02:31:51;101832.66;;;0.86;100.00
69751;BME280;57335;52.288;6.056;2024-03-08T02:34:18;101830.44;;;0.82;100.00
69751;BME280;57335;52.288;6.056;2024-03-08T02:36:46;101827.06;;;0.81;100.00
69751;BME280;57335;52.288;6.056;2024-03-08T02:39:13;101842.88;;;0.88;100.00
69751;BME280;57335;52.288;6.056;2024-03-08T02:41:39;101836.78;;;0.89;100.00
69751;BME280;57335;52.288;6.056;2024-03-08T02:44:06;101830.22;;;0.85;100.00
69751;BME280;57335;52.288;6.056;2024-03-08T02:46:33;101829.38;;;0.84;100.00
69751;BME280;57335;52.288;6.056;2024-03-08T02:49:02;101835.84;;;0.90;100.00
69751;BME280;57335;52.288;6.056;2024-03-08T02:51:29;101826.59;;;0.87;100.00
69751;BME280;57335;52.288;6.056;2024-03-08T02:53:55;101824.00;;;0.87;100.00
69751;BME280;57335;52.288;6.056;2024-03-08T02:56:22;101814.59;;;0.86;100.00
69751;BME280;57335;52.288;6.056;2024-03-08T02:58:48;101827.28;;;0.89;100.00
69751;BME280;57335;52.288;6.056;2024-03-08T03:01:15;101799.59;;;0.80;100.00
69751;BME280;57335;52.288;6.056;2024-03-08T03:03:42;101819.66;;;0.88;100.00
69751;BME280;57335;52.288;6.056;2024-03-08T03:06:09;101798.88;;;0.78;100.00
69751;BME280;57335;52.288;6.056;2024-03-08T03:08:36;101795.03;;;0.72;100.00
69751;BME280;57335;52.288;6.056;2024-03-08T03:11:03;101794.22;;;0.72;100.00
69751;BME280;57335;52.288;6.056;2024-03-08T03:13:29;101791.50;;;0.73;100.00
69751;BME280;57335;52.288;6.056;2024-03-08T03:15:56;101804.91;;;0.78;100.00
69751;BME280;57335;52.288;6.056;2024-03-08T03:18:24;101792.69;;;0.69;100.00
69751;BME280;57335;52.288;6.056;2024-03-08T03:20:52;101793.28;;;0.73;100.00
69751;BME280;57335;52.288;6.056;2024-03-08T03:23:19;101792.69;;;0.69;100.00
69751;BME280;57335;52.288;6.056;2024-03-08T03:25:47;101795.38;;;0.79;100.00
69751;BME280;57335;52.288;6.056;2024-03-08T03:28:14;101784.59;;;0.74;100.00
69751;BME280;57335;52.288;6.056;2024-03-08T03:30:46;101775.44;;;0.70;100.00
69751;BME280;57335;52.288;6.056;2024-03-08T03:33:13;101784.13;;;0.69;100.00
69751;BME280;57335;52.288;6.056;2024-03-08T03:35:42;101783.66;;;0.75;100.00
69751;BME280;57335;52.288;6.056;2024-03-08T03:38:09;101786.47;;;0.72;100.00
69751;BME280;57335;52.288;6.056;2024-03-08T03:40:38;101769.84;;;0.65;100.00
69751;BME280;57335;52.288;6.056;2024-03-08T03:43:05;101773.94;;;0.67;100.00
69751;BME280;57335;52.288;6.056;2024-03-08T03:45:32;101776.41;;;0.69;100.00
69751;BME280;57335;52.288;6.056;2024-03-08T03:48:04;101770.28;;;0.70;100.00
69751;BME280;57335;52.288;6.056;2024-03-08T03:50:33;101761.84;;;0.68;100.00
69751;BME280;57335;52.288;6.056;2024-03-08T03:53:04;101763.50;;;0.69;100.00
69751;BME280;57335;52.288;6.056;2024-03-08T03:55:30;101769.72;;;0.66;100.00
69751;BME280;57335;52.288;6.056;2024-03-08T03:57:57;101778.38;;;0.65;100.00
69751;BME280;57335;52.288;6.056;2024-03-08T04:00:25;101762.31;;;0.62;100.00
69751;BME280;57335;52.288;6.056;2024-03-08T04:02:53;101768.78;;;0.67;100.00
69751;BME280;57335;52.288;6.056;2024-03-08T04:05:21;101765.81;;;0.72;100.00
69751;BME280;57335;52.288;6.056;2024-03-08T04:07:48;101757.88;;;0.75;100.00
69751;BME280;57335;52.288;6.056;2024-03-08T04:10:14;101756.69;;;0.68;100.00
69751;BME280;57335;52.288;6.056;2024-03-08T04:12:41;101761.97;;;0.77;100.00
69751;BME280;57335;52.288;6.056;2024-03-08T04:15:07;101761.38;;;0.74;100.00
69751;BME280;57335;52.288;6.056;2024-03-08T04:17:34;101746.84;;;0.73;100.00
69751;BME280;57335;52.288;6.056;2024-03-08T04:20:05;101739.22;;;0.71;100.00
69751;BME280;57335;52.288;6.056;2024-03-08T04:22:36;101744.72;;;0.78;100.00
69751;BME280;57335;52.288;6.056;2024-03-08T04:25:04;101731.13;;;0.65;100.00
69751;BME280;57335;52.288;6.056;2024-03-08T04:27:33;101740.88;;;0.72;100.00
69751;BME280;57335;52.288;6.056;2024-03-08T04:30:01;101740.16;;;0.70;100.00
69751;BME280;57335;52.288;6.056;2024-03-08T04:32:28;101747.75;;;0.72;100.00
69751;BME280;57335;52.288;6.056;2024-03-08T04:34:56;101745.66;;;0.66;100.00
69751;BME280;57335;52.288;6.056;2024-03-08T04:37:23;101745.06;;;0.73;100.00
69751;BME280;57335;52.288;6.056;2024-03-08T04:39:50;101748.03;;;0.69;100.00
69751;BME280;57335;52.288;6.056;2024-03-08T04:42:16;101746.72;;;0.74;100.00
69751;BME280;57335;52.288;6.056;2024-03-08T04:44:45;101747.31;;;0.67;100.00
69751;BME280;57335;52.288;6.056;2024-03-08T04:47:11;101732.06;;;0.75;100.00
69751;BME280;57335;52.288;6.056;2024-03-08T04:49:38;101723.84;;;0.70;100.00
69751;BME280;57335;52.288;6.056;2024-03-08T04:52:05;101736.97;;;0.78;100.00
69751;BME280;57335;52.288;6.056;2024-03-08T04:54:31;101726.91;;;0.75;100.00
69751;BME280;57335;52.288;6.056;2024-03-08T04:56:58;101730.19;;;0.77;100.00
69751;BME280;57335;52.288;6.056;2024-03-08T04:59:27;101727.00;;;0.73;100.00
69751;BME280;57335;52.288;6.056;2024-03-08T05:01:54;101725.25;;;0.74;100.00
69751;BME280;57335;52.288;6.056;2024-03-08T05:04:21;101723.50;;;0.74;100.00
69751;BME280;57335;52.288;6.056;2024-03-08T05:06:48;101724.44;;;0.73;100.00
69751;BME280;57335;52.288;6.056;2024-03-08T05:09:14;101708.84;;;0.64;100.00
69751;BME280;57335;52.288;6.056;2024-03-08T05:11:43;101715.88;;;0.73;100.00
69751;BME280;57335;52.288;6.056;2024-03-08T05:14:14;101708.72;;;0.65;100.00
69751;BME280;57335;52.288;6.056;2024-03-08T05:16:46;101714.59;;;0.67;100.00
69751;BME280;57335;52.288;6.056;2024-03-08T05:19:16;101732.06;;;0.75;100.00
69751;BME280;57335;52.288;6.056;2024-03-08T05:21:44;101707.91;;;0.65;100.00
69751;BME280;57335;52.288;6.056;2024-03-08T05:24:11;101713.53;;;0.70;100.00
69751;BME280;57335;52.288;6.056;2024-03-08T05:26:39;101722.66;;;0.74;100.00
69751;BME280;57335;52.288;6.056;2024-03-08T05:29:05;101712.72;;;0.69;100.00
69751;BME280;57335;52.288;6.056;2024-03-08T05:32:06;101723.25;;;0.77;100.00
69751;BME280;57335;52.288;6.056;2024-03-08T05:34:25;101701.00;;;0.65;100.00
69751;BME280;57335;52.288;6.056;2024-03-08T05:36:54;101707.66;;;0.68;100.00
69751;BME280;57335;52.288;6.056;2024-03-08T05:39:21;101730.66;;;0.71;100.00
69751;BME280;57335;52.288;6.056;2024-03-08T05:41:48;101720.34;;;0.71;100.00
69751;BME280;57335;52.288;6.056;2024-03-08T05:44:15;101715.66;;;0.65;100.00
69751;BME280;57335;52.288;6.056;2024-03-08T05:46:44;101710.03;;;0.59;100.00
69751;BME280;57335;52.288;6.056;2024-03-08T05:49:13;101716.34;;;0.67;100.00
69751;BME280;57335;52.288;6.056;2024-03-08T05:51:40;101720.72;;;0.66;100.00
69751;BME280;57335;52.288;6.056;2024-03-08T05:54:08;101705.94;;;0.57;100.00
69751;BME280;57335;52.288;6.056;2024-03-08T05:56:38;101717.06;;;0.69;100.00
69751;BME280;57335;52.288;6.056;2024-03-08T05:59:04;101712.25;;;0.64;100.00
69751;BME280;57335;52.288;6.056;2024-03-08T06:01:31;101717.41;;;0.64;100.00
69751;BME280;57335;52.288;6.056;2024-03-08T06:03:57;101708.97;;;0.62;100.00
69751;BME280;57335;52.288;6.056;2024-03-08T06:06:25;101698.91;;;0.59;100.00
69751;BME280;57335;52.288;6.056;2024-03-08T06:08:52;101693.84;;;0.57;100.00
69751;BME280;57335;52.288;6.056;2024-03-08T06:11:19;101700.66;;;0.58;100.00
69751;BME280;57335;52.288;6.056;2024-03-08T06:13:47;101698.41;;;0.65;100.00
69751;BME280;57335;52.288;6.056;2024-03-08T06:16:13;101694.56;;;0.59;100.00
69751;BME280;57335;52.288;6.056;2024-03-08T06:18:40;101679.78;;;0.62;100.00
69751;BME280;57335;52.288;6.056;2024-03-08T06:21:08;101687.03;;;0.79;100.00
69751;BME280;57335;52.288;6.056;2024-03-08T06:23:39;101690.88;;;0.85;100.00
69751;BME280;57335;52.288;6.056;2024-03-08T06:26:06;101683.94;;;0.85;100.00
69751;BME280;57335;52.288;6.056;2024-03-08T06:28:33;101701.75;;;0.99;100.00
69751;BME280;57335;52.288;6.056;2024-03-08T06:31:01;101698.31;;;1.10;100.00
69751;BME280;57335;52.288;6.056;2024-03-08T06:33:29;101677.53;;;1.12;100.00
69751;BME280;57335;52.288;6.056;2024-03-08T06:35:56;101682.63;;;1.34;100.00
69751;BME280;57335;52.288;6.056;2024-03-08T06:38:24;101681.28;;;1.40;100.00
69751;BME280;57335;52.288;6.056;2024-03-08T06:40:54;101679.72;;;1.49;100.00
69751;BME280;57335;52.288;6.056;2024-03-08T06:43:21;101673.28;;;1.64;100.00
69751;BME280;57335;52.288;6.056;2024-03-08T06:45:47;101667.13;;;1.76;100.00
69751;BME280;57335;52.288;6.056;2024-03-08T06:48:17;101675.28;;;2.03;100.00
69751;BME280;57335;52.288;6.056;2024-03-08T06:50:44;101667.94;;;2.08;100.00
69751;BME280;57335;52.288;6.056;2024-03-08T06:53:12;101668.69;;;2.29;100.00
69751;BME280;57335;52.288;6.056;2024-03-08T06:55:39;101673.22;;;2.37;100.00
69751;BME280;57335;52.288;6.056;2024-03-08T06:58:06;101668.06;;;2.37;100.00
69751;BME280;57335;52.288;6.056;2024-03-08T07:00:38;101663.88;;;2.55;100.00
69751;BME280;57335;52.288;6.056;2024-03-08T07:03:07;101672.91;;;2.71;100.00
69751;BME280;57335;52.288;6.056;2024-03-08T07:05:34;101660.78;;;2.81;100.00
69751;BME280;57335;52.288;6.056;2024-03-08T07:08:01;101657.13;;;2.93;100.00
69751;BME280;57335;52.288;6.056;2024-03-08T07:10:28;101662.16;;;3.14;99.56
69751;BME280;57335;52.288;6.056;2024-03-08T07:12:55;101654.13;;;3.27;98.16
69751;BME280;57335;52.288;6.056;2024-03-08T07:15:21;101664.72;;;3.44;98.08
69751;BME280;57335;52.288;6.056;2024-03-08T07:17:49;101661.84;;;3.56;96.52
69751;BME280;57335;52.288;6.056;2024-03-08T07:20:19;101661.69;;;3.68;95.87
69751;BME280;57335;52.288;6.056;2024-03-08T07:22:46;101669.94;;;3.91;95.57
69751;BME280;57335;52.288;6.056;2024-03-08T07:25:19;101669.31;;;4.07;93.38
69751;BME280;57335;52.288;6.056;2024-03-08T07:27:51;101655.66;;;4.14;93.96
69751;BME280;57335;52.288;6.056;2024-03-08T07:30:23;101649.69;;;4.32;91.09
69751;BME280;57335;52.288;6.056;2024-03-08T07:33:10;101655.69;;;4.32;90.56
69751;BME280;57335;52.288;6.056;2024-03-08T07:35:41;101661.47;;;4.54;89.27
69751;BME280;57335;52.288;6.056;2024-03-08T07:38:09;101657.59;;;4.40;90.53
69751;BME280;57335;52.288;6.056;2024-03-08T07:40:40;101672.78;;;4.53;90.01
69751;BME280;57335;52.288;6.056;2024-03-08T07:43:11;101663.75;;;4.57;88.75
69751;BME280;57335;52.288;6.056;2024-03-08T07:45:38;101653.91;;;4.60;90.30
69751;BME280;57335;52.288;6.056;2024-03-08T07:48:05;101655.63;;;4.70;88.16
69751;BME280;57335;52.288;6.056;2024-03-08T07:50:40;101661.19;;;4.93;87.02
69751;BME280;57335;52.288;6.056;2024-03-08T07:53:07;101657.03;;;4.82;87.50
69751;BME280;57335;52.288;6.056;2024-03-08T07:55:35;101638.19;;;4.98;87.09
69751;BME280;57335;52.288;6.056;2024-03-08T07:58:02;101644.66;;;5.12;88.08
69751;BME280;57335;52.288;6.056;2024-03-08T08:00:32;101636.97;;;5.28;86.50
69751;BME280;57335;52.288;6.056;2024-03-08T08:02:59;101644.63;;;5.30;87.11
69751;BME280;57335;52.288;6.056;2024-03-08T08:05:25;101638.06;;;5.44;85.85
69751;BME280;57335;52.288;6.056;2024-03-08T08:07:52;101634.31;;;5.20;84.03
69751;BME280;57335;52.288;6.056;2024-03-08T08:10:20;101638.72;;;5.46;85.53
69751;BME280;57335;52.288;6.056;2024-03-08T08:12:52;101623.94;;;5.20;85.41
69751;BME280;57335;52.288;6.056;2024-03-08T08:15:18;101642.91;;;5.38;85.37
69751;BME280;57335;52.288;6.056;2024-03-08T08:17:45;101632.78;;;5.53;83.43
69751;BME280;57335;52.288;6.056;2024-03-08T08:20:12;101613.97;;;5.33;84.59
69751;BME280;57335;52.288;6.056;2024-03-08T08:22:39;101608.63;;;5.43;83.42
69751;BME280;57335;52.288;6.056;2024-03-08T08:25:07;101610.28;;;5.44;84.99
69751;BME280;57335;52.288;6.056;2024-03-08T08:27:34;101611.44;;;5.24;84.70
69751;BME280;57335;52.288;6.056;2024-03-08T08:30:04;101596.72;;;5.32;85.75
69751;BME280;57335;52.288;6.056;2024-03-08T08:32:35;101613.75;;;5.53;85.27
69751;BME280;57335;52.288;6.056;2024-03-08T08:35:13;101602.09;;;5.65;83.97
69751;BME280;57335;52.288;6.056;2024-03-08T08:37:40;101594.25;;;5.57;84.12
69751;BME280;57335;52.288;6.056;2024-03-08T08:40:07;101596.56;;;5.60;84.29
69751;BME280;57335;52.288;6.056;2024-03-08T08:42:41;101597.63;;;5.75;83.90
69751;BME280;57335;52.288;6.056;2024-03-08T08:45:08;101584.03;;;5.90;84.23
69751;BME280;57335;52.288;6.056;2024-03-08T08:47:43;101591.91;;;6.06;82.29
69751;BME280;57335;52.288;6.056;2024-03-08T08:50:10;101576.03;;;6.17;79.75
69751;BME280;57335;52.288;6.056;2024-03-08T08:52:39;101580.22;;;6.10;82.73
69751;BME280;57335;52.288;6.056;2024-03-08T08:55:06;101578.66;;;6.26;82.77
69751;BME280;57335;52.288;6.056;2024-03-08T08:57:33;101584.53;;;6.36;81.04
69751;BME280;57335;52.288;6.056;2024-03-08T08:59:59;101579.34;;;6.44;81.22
69751;BME280;57335;52.288;6.056;2024-03-08T09:02:27;101581.41;;;6.24;81.27
69751;BME280;57335;52.288;6.056;2024-03-08T09:04:53;101567.13;;;6.53;78.99
69751;BME280;57335;52.288;6.056;2024-03-08T09:07:20;101556.03;;;6.34;80.92
69751;BME280;57335;52.288;6.056;2024-03-08T09:09:47;101555.56;;;6.55;79.46
69751;BME280;57335;52.288;6.056;2024-03-08T09:12:13;101553.16;;;6.54;80.30
69751;BME280;57335;52.288;6.056;2024-03-08T09:14:40;101556.06;;;6.75;80.52
69751;BME280;57335;52.288;6.056;2024-03-08T09:17:08;101557.19;;;6.97;79.24
69751;BME280;57335;52.288;6.056;2024-03-08T09:19:35;101551.69;;;6.84;80.21
69751;BME280;57335;52.288;6.056;2024-03-08T09:22:04;101538.28;;;7.20;77.49
69751;BME280;57335;52.288;6.056;2024-03-08T09:24:31;101556.53;;;7.20;77.92
69751;BME280;57335;52.288;6.056;2024-03-08T09:26:57;101532.59;;;7.08;79.80
69751;BME280;57335;52.288;6.056;2024-03-08T09:29:27;101535.06;;;7.10;79.14
69751;BME280;57335;52.288;6.056;2024-03-08T09:31:54;101538.13;;;7.13;78.71
69751;BME280;57335;52.288;6.056;2024-03-08T09:34:21;101521.66;;;7.21;77.35
69751;BME280;57335;52.288;6.056;2024-03-08T09:36:54;101538.09;;;7.22;80.07
69751;BME280;57335;52.288;6.056;2024-03-08T09:39:21;101543.13;;;7.31;79.43
69751;BME280;57335;52.288;6.056;2024-03-08T09:41:50;101524.59;;;7.18;78.61
69751;BME280;57335;52.288;6.056;2024-03-08T09:44:16;101513.69;;;7.14;83.14
69751;BME280;57335;52.288;6.056;2024-03-08T09:46:45;101522.97;;;7.09;81.27
69751;BME280;57335;52.288;6.056;2024-03-08T09:49:13;101511.03;;;7.31;81.99
69751;BME280;57335;52.288;6.056;2024-03-08T09:51:40;101500.97;;;7.28;81.41
69751;BME280;57335;52.288;6.056;2024-03-08T09:54:07;101514.81;;;7.20;83.76
69751;BME280;57335;52.288;6.056;2024-03-08T09:56:46;101500.75;;;7.37;80.94
69751;BME280;57335;52.288;6.056;2024-03-08T09:59:13;101483.31;;;7.38;83.81
69751;BME280;57335;52.288;6.056;2024-03-08T10:01:52;101488.78;;;7.12;81.50
69751;BME280;57335;52.288;6.056;2024-03-08T10:04:18;101485.56;;;7.02;81.99
69751;BME280;57335;52.288;6.056;2024-03-08T10:06:46;101477.38;;;7.13;85.85
69751;BME280;57335;52.288;6.056;2024-03-08T10:09:13;101475.75;;;7.12;83.69
69751;BME280;57335;52.288;6.056;2024-03-08T10:11:40;101468.25;;;7.09;85.04
69751;BME280;57335;52.288;6.056;2024-03-08T10:14:08;101471.34;;;7.12;84.37
69751;BME280;57335;52.288;6.056;2024-03-08T10:16:35;101464.84;;;7.08;84.98
69751;BME280;57335;52.288;6.056;2024-03-08T10:19:01;101454.59;;;6.98;84.63
69751;BME280;57335;52.288;6.056;2024-03-08T10:21:29;101474.25;;;7.17;84.77
69751;BME280;57335;52.288;6.056;2024-03-08T10:23:56;101459.13;;;7.13;85.00
69751;BME280;57335;52.288;6.056;2024-03-08T10:26:22;101469.22;;;7.16;83.71
69751;BME280;57335;52.288;6.056;2024-03-08T10:28:52;101441.00;;;7.19;82.29
69751;BME280;57335;52.288;6.056;2024-03-08T10:31:21;101444.25;;;7.22;84.96
69751;BME280;57335;52.288;6.056;2024-03-08T10:33:48;101450.56;;;7.35;85.93
69751;BME280;57335;52.288;6.056;2024-03-08T10:36:15;101447.19;;;7.27;85.80
69751;BME280;57335;52.288;6.056;2024-03-08T10:38:43;101433.38;;;7.49;83.54
69751;BME280;57335;52.288;6.056;2024-03-08T10:41:14;101434.22;;;7.50;82.05
69751;BME280;57335;52.288;6.056;2024-03-08T10:43:56;101436.13;;;7.56;83.48
69751;BME280;57335;52.288;6.056;2024-03-08T10:46:33;101426.56;;;7.48;82.78
69751;BME280;57335;52.288;6.056;2024-03-08T10:49:06;101442.31;;;7.55;82.67
69751;BME280;57335;52.288;6.056;2024-03-08T10:51:37;101424.88;;;7.55;82.89
69751;BME280;57335;52.288;6.056;2024-03-08T10:54:05;101424.19;;;7.62;83.09
69751;BME280;57335;52.288;6.056;2024-03-08T10:56:33;101421.03;;;7.74;84.48
69751;BME280;57335;52.288;6.056;2024-03-08T10:59:00;101417.09;;;7.78;85.02
69751;BME280;57335;52.288;6.056;2024-03-08T11:01:26;101398.81;;;7.78;83.00
69751;BME280;57335;52.288;6.056;2024-03-08T11:03:53;101385.38;;;7.90;82.56
69751;BME280;57335;52.288;6.056;2024-03-08T11:08:50;101390.56;;;8.13;81.70
69751;BME280;57335;52.288;6.056;2024-03-08T11:11:30;101396.25;;;8.16;79.48
69751;BME280;57335;52.288;6.056;2024-03-08T11:14:01;101401.66;;;8.15;80.08
69751;BME280;57335;52.288;6.056;2024-03-08T11:21:57;101378.88;;;8.47;82.46
69751;BME280;57335;52.288;6.056;2024-03-08T11:24:23;101367.53;;;8.54;79.07
69751;BME280;57335;52.288;6.056;2024-03-08T11:26:56;101361.22;;;8.64;77.40
69751;BME280;57335;52.288;6.056;2024-03-08T11:32:14;101364.19;;;8.75;77.74
69751;BME280;57335;52.288;6.056;2024-03-08T11:34:43;101360.31;;;8.86;78.81
69751;BME280;57335;52.288;6.056;2024-03-08T11:37:14;101357.97;;;8.91;80.54
69751;BME280;57335;52.288;6.056;2024-03-08T11:39:49;101352.84;;;8.83;77.60
69751;BME280;57335;52.288;6.056;2024-03-08T11:42:17;101339.09;;;8.96;77.27
69751;BME280;57335;52.288;6.056;2024-03-08T11:44:45;101325.88;;;8.97;76.95
69751;BME280;57335;52.288;6.056;2024-03-08T11:47:14;101326.13;;;9.03;76.49
69751;BME280;57335;52.288;6.056;2024-03-08T11:49:42;101322.78;;;9.09;77.59
69751;BME280;57335;52.288;6.056;2024-03-08T11:52:11;101319.59;;;9.13;75.65
69751;BME280;57335;52.288;6.056;2024-03-08T11:54:41;101311.41;;;9.16;76.15
69751;BME280;57335;52.288;6.056;2024-03-08T11:57:09;101312.31;;;9.09;76.77
69751;BME280;57335;52.288;6.056;2024-03-08T11:59:37;101297.50;;;9.16;75.33
69751;BME280;57335;52.288;6.056;2024-03-08T12:02:04;101298.66;;;9.28;75.37
69751;BME280;57335;52.288;6.056;2024-03-08T12:04:32;101305.13;;;9.32;72.07
69751;BME280;57335;52.288;6.056;2024-03-08T12:07:00;101297.09;;;9.34;74.44
69751;BME280;57335;52.288;6.056;2024-03-08T12:09:37;101285.47;;;9.36;75.22
69751;BME280;57335;52.288;6.056;2024-03-08T12:12:06;101294.41;;;9.49;74.17
69751;BME280;57335;52.288;6.056;2024-03-08T12:14:34;101282.59;;;9.53;74.26
69751;BME280;57335;52.288;6.056;2024-03-08T12:17:00;101292.03;;;9.54;72.15
69751;BME280;57335;52.288;6.056;2024-03-08T12:19:28;101286.66;;;9.62;74.18
69751;BME280;57335;52.288;6.056;2024-03-08T12:21:55;101279.66;;;9.63;69.93
69751;BME280;57335;52.288;6.056;2024-03-08T12:24:21;101268.34;;;9.62;69.40
69751;BME280;57335;52.288;6.056;2024-03-08T12:26:48;101247.94;;;9.51;72.31
69751;BME280;57335;52.288;6.056;2024-03-08T12:29:19;101267.94;;;9.58;69.69
69751;BME280;57335;52.288;6.056;2024-03-08T12:31:54;101248.88;;;9.65;71.37
69751;BME280;57335;52.288;6.056;2024-03-08T12:34:21;101244.56;;;9.57;68.64
69751;BME280;57335;52.288;6.056;2024-03-08T12:36:49;101238.91;;;9.53;68.33
69751;BME280;57335;52.288;6.056;2024-03-08T12:39:18;101227.88;;;9.58;69.65
69751;BME280;57335;52.288;6.056;2024-03-08T12:41:54;101221.47;;;9.39;68.28
69751;BME280;57335;52.288;6.056;2024-03-08T12:44:21;101231.09;;;9.60;68.91
69751;BME280;57335;52.288;6.056;2024-03-08T12:46:48;101221.75;;;9.72;72.93
69751;BME280;57335;52.288;6.056;2024-03-08T12:49:18;101206.94;;;9.86;73.29
69751;BME280;57335;52.288;6.056;2024-03-08T12:51:48;101196.47;;;9.86;69.00
69751;BME280;57335;52.288;6.056;2024-03-08T12:54:15;101200.72;;;9.94;70.83
69751;BME280;57335;52.288;6.056;2024-03-08T12:56:41;101196.88;;;9.90;66.18
69751;BME280;57335;52.288;6.056;2024-03-08T12:59:08;101204.13;;;9.88;65.83
69751;BME280;57335;52.288;6.056;2024-03-08T13:01:35;101186.88;;;9.65;65.26
69751;BME280;57335;52.288;6.056;2024-03-08T13:04:04;101203.38;;;9.66;64.86
69751;BME280;57335;52.288;6.056;2024-03-08T13:06:32;101195.34;;;9.67;69.48
69751;BME280;57335;52.288;6.056;2024-03-08T13:08:59;101171.16;;;9.65;68.01
69751;BME280;57335;52.288;6.056;2024-03-08T13:11:32;101190.97;;;9.74;66.89